createdAt,value
2019-03-24T00:03:21.584Z,1016.79
2019-03-24T00:08:21.969Z,1016.78
2019-03-24T00:13:24.816Z,1016.88
2019-03-24T00:18:23.483Z,1016.82
2019-03-24T00:23:23.925Z,1016.87
2019-03-24T00:28:24.377Z,1016.78
2019-03-24T00:33:24.831Z,1016.73
2019-03-24T00:38:25.293Z,1016.72
2019-03-24T00:43:25.739Z,1016.64
2019-03-24T00:48:27.176Z,1016.62
2019-03-24T00:53:27.619Z,1016.54
2019-03-24T00:58:28.052Z,1016.50
2019-03-24T01:03:28.512Z,1016.42
2019-03-24T01:08:29.142Z,1016.37
2019-03-24T01:13:29.620Z,1016.33
2019-03-24T01:18:30.038Z,1016.35
2019-03-24T01:23:30.475Z,1016.32
2019-03-24T01:28:30.929Z,1016.39
2019-03-24T01:33:31.426Z,1016.41
2019-03-24T01:38:32.072Z,1016.44
2019-03-24T01:43:32.499Z,1016.35
2019-03-24T01:48:32.924Z,1016.33
2019-03-24T01:53:33.340Z,1016.36
2019-03-24T01:58:33.775Z,1016.26
2019-03-24T02:03:34.464Z,1016.28
2019-03-24T02:08:34.901Z,1016.20
2019-03-24T02:13:35.361Z,1016.19
2019-03-24T02:18:36.012Z,1016.13
2019-03-24T02:23:36.436Z,1016.17
2019-03-24T02:28:36.865Z,1015.97
2019-03-24T02:33:37.362Z,1016.06
2019-03-24T02:38:37.804Z,1016.02
2019-03-24T02:43:38.428Z,1015.97
2019-03-24T02:48:38.830Z,1015.95
2019-03-24T02:53:39.312Z,1015.97
2019-03-24T02:58:39.777Z,1015.98
2019-03-24T03:03:40.417Z,1015.87
2019-03-24T03:08:40.835Z,1015.90
2019-03-24T03:13:41.303Z,1015.87
2019-03-24T03:18:41.759Z,1015.92
2019-03-24T03:23:42.394Z,1015.89
2019-03-24T03:28:42.840Z,1015.87
2019-03-24T03:33:43.466Z,1015.90
2019-03-24T03:38:43.924Z,1015.88
2019-03-24T03:43:44.373Z,1015.88
2019-03-24T03:48:45.030Z,1015.84
2019-03-24T03:53:45.637Z,1015.79
2019-03-24T03:58:46.301Z,1015.80
2019-03-24T04:03:46.975Z,1015.75
2019-03-24T04:08:47.598Z,1015.70
2019-03-24T04:13:48.257Z,1015.66
2019-03-24T04:18:48.906Z,1015.71
2019-03-24T04:23:49.551Z,1015.68
2019-03-24T04:28:50.192Z,1015.57
2019-03-24T04:33:50.861Z,1015.67
2019-03-24T04:38:51.475Z,1015.65
2019-03-24T04:43:52.144Z,1015.66
2019-03-24T04:48:52.812Z,1015.68
2019-03-24T04:53:53.446Z,1015.67
2019-03-24T04:58:53.852Z,1015.69
2019-03-24T05:03:54.328Z,1015.62
2019-03-24T05:08:54.776Z,1015.67
2019-03-24T05:13:55.196Z,1015.67
2019-03-24T05:18:55.865Z,1015.64
2019-03-24T05:23:56.648Z,1015.72
2019-03-24T05:28:57.146Z,1015.67
2019-03-24T05:33:57.623Z,1015.65
2019-03-24T05:38:58.049Z,1015.71
2019-03-24T05:43:58.465Z,1015.63
2019-03-24T05:48:58.935Z,1015.67
2019-03-24T05:53:59.350Z,1015.65
2019-03-24T05:58:59.835Z,1015.63
2019-03-24T06:04:00.246Z,1015.65
2019-03-24T06:09:00.905Z,1015.67
2019-03-24T06:14:01.335Z,1015.73
2019-03-24T06:19:01.769Z,1015.76
2019-03-24T06:24:02.260Z,1015.77
2019-03-24T06:29:02.911Z,1015.83
2019-03-24T06:34:03.553Z,1015.84
2019-03-24T06:39:04.178Z,1015.88
2019-03-24T06:44:04.612Z,1015.84
2019-03-24T06:49:05.297Z,1015.79
2019-03-24T06:54:05.697Z,1015.79
2019-03-24T06:59:06.714Z,1015.68
2019-03-24T07:04:07.439Z,1015.73
2019-03-24T07:09:07.872Z,1015.69
2019-03-24T07:14:08.505Z,1015.72
2019-03-24T07:19:08.947Z,1015.65
2019-03-24T07:24:09.374Z,1015.65
2019-03-24T07:29:09.824Z,1015.60
2019-03-24T07:34:10.309Z,1015.51
2019-03-24T07:39:10.735Z,1015.51
2019-03-24T07:44:11.193Z,1015.48
2019-03-24T07:49:11.623Z,1015.43
2019-03-24T07:54:12.095Z,1015.31
2019-03-24T07:59:12.696Z,1015.37
2019-03-24T08:04:13.172Z,1015.32
2019-03-24T08:09:13.616Z,1015.19
2019-03-24T08:14:14.044Z,1015.11
2019-03-24T08:19:14.509Z,1015.13
2019-03-24T08:24:15.162Z,1015.12
2019-03-24T08:29:15.563Z,1015.10
2019-03-24T08:34:16.038Z,1014.98
2019-03-24T08:39:16.471Z,1014.97
2019-03-24T08:44:16.904Z,1014.99
2019-03-24T08:49:17.359Z,1015.12
2019-03-24T08:54:17.835Z,1015.07
2019-03-24T08:59:18.459Z,1015.16
2019-03-24T09:04:18.860Z,1015.27
2019-03-24T09:09:19.366Z,1015.25
2019-03-24T09:14:19.807Z,1015.22
2019-03-24T09:19:20.225Z,1015.30
2019-03-24T09:24:20.700Z,1015.31
2019-03-24T09:29:21.225Z,1015.33
2019-03-24T09:34:21.699Z,1015.33
2019-03-24T09:39:22.261Z,1015.42
2019-03-24T09:44:22.730Z,1015.45
2019-03-24T09:49:23.216Z,1015.40
2019-03-24T09:54:23.669Z,1015.47
2019-03-24T09:59:24.117Z,1015.52
2019-03-24T10:04:25.962Z,1015.61
2019-03-24T10:09:26.454Z,1015.63
2019-03-24T10:14:26.846Z,1015.57
2019-03-24T10:19:27.316Z,1015.47
2019-03-24T10:24:27.751Z,1015.46
2019-03-24T10:29:28.207Z,1015.41
2019-03-24T10:34:28.661Z,1015.45
2019-03-24T10:39:29.072Z,1015.49
2019-03-24T10:44:29.536Z,1015.46
2019-03-24T10:49:29.976Z,1015.42
2019-03-24T10:54:30.441Z,1015.35
2019-03-24T10:59:31.080Z,1015.30
2019-03-24T11:04:31.501Z,1015.25
2019-03-24T11:09:31.929Z,1015.07
2019-03-24T11:14:32.394Z,1014.93
2019-03-24T11:19:35.874Z,1014.83
2019-03-24T11:24:34.723Z,1014.73
2019-03-24T11:29:35.626Z,1014.66
2019-03-24T11:34:36.234Z,1014.70
2019-03-24T11:39:36.680Z,1014.72
2019-03-24T11:44:37.090Z,1014.69
2019-03-24T11:49:45.769Z,1014.64
2019-03-24T11:54:38.389Z,1014.56
2019-03-24T11:59:38.846Z,1014.57
2019-03-24T12:04:39.266Z,1014.48
2019-03-24T12:09:39.964Z,1014.51
2019-03-24T12:14:40.371Z,1014.55
2019-03-24T12:19:40.967Z,1014.51
2019-03-24T12:24:41.473Z,1014.47
2019-03-24T12:29:41.922Z,1014.45
2019-03-24T12:34:42.319Z,1014.43
2019-03-24T12:39:42.809Z,1014.42
2019-03-24T12:44:43.430Z,1014.40
2019-03-24T12:49:44.105Z,1014.36
2019-03-24T12:54:44.755Z,1014.22
2019-03-24T12:59:45.432Z,1014.27
2019-03-24T13:04:46.069Z,1014.34
2019-03-24T13:09:46.630Z,1014.35
2019-03-24T13:14:47.151Z,1014.22
2019-03-24T13:19:48.010Z,1014.32
2019-03-24T13:24:48.388Z,1014.28
2019-03-24T13:29:49.058Z,1014.24
2019-03-24T13:34:49.740Z,1014.19
2019-03-24T13:39:50.177Z,1014.08
2019-03-24T13:44:50.604Z,1014.00
2019-03-24T13:49:51.067Z,1014.04
2019-03-24T13:54:51.550Z,1014.00
2019-03-24T13:59:52.153Z,1013.99
2019-03-24T14:04:52.753Z,1014.01
2019-03-24T14:09:53.263Z,1013.97
2019-03-24T14:14:53.936Z,1013.95
2019-03-24T14:19:54.574Z,1013.96
2019-03-24T14:24:55.199Z,1013.96
2019-03-24T14:29:55.849Z,1013.90
2019-03-24T14:34:56.446Z,1013.90
2019-03-24T14:39:56.953Z,1013.82
2019-03-24T14:44:57.598Z,1013.83
2019-03-24T14:49:58.255Z,1013.90
2019-03-24T14:54:58.708Z,1013.85
2019-03-24T14:59:59.141Z,1013.76
2019-03-24T15:04:59.532Z,1013.78
2019-03-24T15:10:00.002Z,1013.81
2019-03-24T15:15:00.700Z,1013.70
2019-03-24T15:20:01.069Z,1013.60
2019-03-24T15:25:01.532Z,1013.61
2019-03-24T15:30:01.997Z,1013.56
2019-03-24T15:35:02.634Z,1013.58
2019-03-24T15:40:03.102Z,1013.55
2019-03-24T15:45:03.512Z,1013.51
2019-03-24T15:50:04.003Z,1013.55
2019-03-24T15:55:04.752Z,1013.44
2019-03-24T16:00:05.287Z,1013.36
2019-03-24T16:05:05.734Z,1013.32
2019-03-24T16:10:06.174Z,1013.30
2019-03-24T16:15:06.835Z,1013.24
2019-03-24T16:20:07.239Z,1013.20
2019-03-24T16:25:07.704Z,1013.18
2019-03-24T16:30:08.152Z,1013.12
2019-03-24T16:35:08.595Z,1013.11
2019-03-24T16:40:09.010Z,1013.21
2019-03-24T16:45:09.468Z,1013.16
2019-03-24T16:50:09.936Z,1013.14
2019-03-24T16:55:12.138Z,1013.16
2019-03-24T17:00:10.786Z,1013.20
2019-03-24T17:05:12.470Z,1013.05
2019-03-24T17:10:12.879Z,1013.00
2019-03-24T17:15:13.350Z,1013.08
2019-03-24T17:20:13.811Z,1013.13
2019-03-24T17:25:14.226Z,1013.10
2019-03-24T17:30:14.680Z,1013.07
2019-03-24T17:35:15.121Z,1013.14
2019-03-24T17:40:15.592Z,1013.09
2019-03-24T17:45:15.997Z,1013.14
2019-03-24T17:50:16.475Z,1013.14
2019-03-24T17:55:26.889Z,1013.20
2019-03-24T18:00:17.175Z,1013.21
2019-03-24T18:05:17.771Z,1013.19
2019-03-24T18:10:18.422Z,1013.30
2019-03-24T18:15:18.778Z,1013.36
2019-03-24T18:20:19.520Z,1013.31
2019-03-24T18:25:20.179Z,1013.29
2019-03-24T18:30:20.824Z,1013.30
2019-03-24T18:35:21.467Z,1013.35
2019-03-24T18:40:21.958Z,1013.32
2019-03-24T18:45:22.548Z,1013.29
2019-03-24T18:50:23.017Z,1013.27
2019-03-24T18:55:23.462Z,1013.23
2019-03-24T19:00:23.904Z,1013.39
2019-03-24T19:05:24.344Z,1013.29
2019-03-24T19:10:24.815Z,1013.33
2019-03-24T19:15:25.402Z,1013.29
2019-03-24T19:20:25.859Z,1013.27
2019-03-24T19:25:26.317Z,1013.23
2019-03-24T19:30:26.994Z,1013.26
2019-03-24T19:35:27.412Z,1013.27
2019-03-24T19:40:27.886Z,1013.21
2019-03-24T19:45:28.325Z,1013.26
2019-03-24T19:50:28.750Z,1013.23
2019-03-24T19:55:29.329Z,1013.20
2019-03-24T20:00:29.825Z,1013.27
2019-03-24T20:05:30.301Z,1013.23
2019-03-24T20:10:30.730Z,1013.29
2019-03-24T20:15:31.155Z,1013.21
2019-03-24T20:20:31.594Z,1013.23
2019-03-24T20:25:32.045Z,1013.35
2019-03-24T20:30:32.711Z,1013.29
2019-03-24T20:35:33.165Z,1013.39
2019-03-24T20:40:33.595Z,1013.32
2019-03-24T20:45:34.065Z,1013.30
2019-03-24T20:50:34.683Z,1013.36
2019-03-24T20:55:35.331Z,1013.28
2019-03-24T21:00:35.786Z,1013.24
2019-03-24T21:05:36.237Z,1013.25
2019-03-24T21:10:36.894Z,1013.24
2019-03-24T21:15:37.296Z,1013.29
2019-03-24T21:20:37.791Z,1013.27
2019-03-24T21:25:38.181Z,1013.25
2019-03-24T21:30:38.861Z,1013.21
2019-03-24T21:35:39.313Z,1013.21
2019-03-24T21:40:39.712Z,1013.22
2019-03-24T21:45:40.252Z,1013.16
2019-03-24T21:50:40.636Z,1013.15
2019-03-24T21:55:41.065Z,1013.10
2019-03-24T22:00:41.505Z,1013.02
2019-03-24T22:05:41.927Z,1012.97
2019-03-24T22:10:42.417Z,1012.93
2019-03-24T22:15:43.057Z,1012.89
2019-03-24T22:20:48.843Z,1012.89
2019-03-24T22:25:43.947Z,1012.85
2019-03-24T22:30:44.400Z,1012.90
2019-03-24T22:35:47.117Z,1012.91
2019-03-24T22:40:45.688Z,1012.78
2019-03-24T22:45:46.127Z,1012.66
2019-03-24T22:50:46.571Z,1012.54
2019-03-24T22:55:47.018Z,1012.56
2019-03-24T23:00:47.456Z,1012.50
2019-03-24T23:05:47.896Z,1012.38
2019-03-24T23:10:48.355Z,1012.40
2019-03-24T23:15:48.787Z,1012.36
2019-03-24T23:20:49.205Z,1012.29
2019-03-24T23:25:49.660Z,1012.24
2019-03-24T23:30:50.155Z,1012.13
2019-03-24T23:35:50.592Z,1012.10
2019-03-24T23:40:51.198Z,1012.01
2019-03-24T23:45:51.641Z,1011.89
2019-03-24T23:50:52.116Z,1011.73
2019-03-24T23:55:52.529Z,1011.61
